createdAt,value
2022-10-31T00:00:28.383Z,73.14
2022-10-31T00:02:54.753Z,73.37
2022-10-31T00:05:21.798Z,73.27
2022-10-31T00:07:48.349Z,73.42
2022-10-31T00:10:14.779Z,73.15
2022-10-31T00:12:41.185Z,73.75
2022-10-31T00:15:07.764Z,73.68
2022-10-31T00:17:36.519Z,73.22
2022-10-31T00:20:03.167Z,73.41
2022-10-31T00:22:29.517Z,73.69
2022-10-31T00:24:55.843Z,74.65
2022-10-31T00:27:22.162Z,74.47
2022-10-31T00:29:48.472Z,74.48
2022-10-31T00:32:14.799Z,73.84
2022-10-31T00:34:41.119Z,74.05
2022-10-31T00:37:07.422Z,73.92
2022-10-31T00:39:34.923Z,73.59
2022-10-31T00:42:01.268Z,73.40
2022-10-31T00:44:27.609Z,73.63
2022-10-31T00:46:53.959Z,73.75
2022-10-31T00:49:20.394Z,73.94
2022-10-31T00:51:46.762Z,73.81
2022-10-31T00:54:13.099Z,74.04
2022-10-31T00:56:39.433Z,74.51
2022-10-31T00:59:05.799Z,74.41
2022-10-31T01:01:32.227Z,74.28
2022-10-31T01:03:58.743Z,73.88
2022-10-31T01:06:25.057Z,74.16
2022-10-31T01:08:51.426Z,73.86
2022-10-31T01:11:20.751Z,73.99
2022-10-31T01:13:48.309Z,73.82
2022-10-31T01:16:17.261Z,73.43
2022-10-31T01:18:44.084Z,73.91
2022-10-31T01:21:16.131Z,73.95
2022-10-31T01:23:42.987Z,73.90
2022-10-31T01:26:10.774Z,74.00
2022-10-31T01:28:39.401Z,74.20
2022-10-31T01:31:09.214Z,73.60
2022-10-31T01:33:36.662Z,73.91
2022-10-31T01:36:17.617Z,74.37
2022-10-31T01:38:44.028Z,74.20
2022-10-31T01:41:13.309Z,74.42
2022-10-31T01:43:54.598Z,73.94
2022-10-31T01:46:36.525Z,74.27
2022-10-31T01:49:06.552Z,74.96
2022-10-31T01:51:37.688Z,75.40
2022-10-31T01:54:11.561Z,75.50
2022-10-31T01:56:41.728Z,75.87
2022-10-31T01:59:12.084Z,75.15
2022-10-31T02:01:39.202Z,75.32
2022-10-31T02:04:06.907Z,74.65
2022-10-31T02:06:49.588Z,74.25
2022-10-31T02:09:16.121Z,74.03
2022-10-31T02:11:44.009Z,74.20
2022-10-31T02:14:10.743Z,73.94
2022-10-31T02:16:37.056Z,74.05
2022-10-31T02:19:08.734Z,73.83
2022-10-31T02:22:03.213Z,73.69
2022-10-31T02:25:05.265Z,75.11
2022-10-31T02:28:02.461Z,75.11
2022-10-31T02:30:54.630Z,74.56
2022-10-31T02:33:26.743Z,74.92
2022-10-31T02:36:06.169Z,74.98
2022-10-31T02:38:48.125Z,74.13
2022-10-31T02:41:25.985Z,74.58
2022-10-31T02:44:10.812Z,76.25
2022-10-31T02:46:50.944Z,75.82
2022-10-31T02:49:26.289Z,75.24
2022-10-31T02:51:52.703Z,74.50
2022-10-31T02:54:22.319Z,74.07
2022-10-31T02:56:52.172Z,73.95
2022-10-31T02:59:18.732Z,74.59
2022-10-31T03:02:03.444Z,74.73
2022-10-31T03:04:48.302Z,74.42
2022-10-31T03:07:32.861Z,75.20
2022-10-31T03:10:14.829Z,74.12
2022-10-31T03:12:48.570Z,74.71
2022-10-31T03:15:24.048Z,75.18
2022-10-31T03:17:59.204Z,75.95
2022-10-31T03:20:35.396Z,75.86
2022-10-31T03:23:05.214Z,75.28
2022-10-31T03:25:35.283Z,75.26
2022-10-31T03:28:05.439Z,75.46
2022-10-31T03:30:36.028Z,75.03
2022-10-31T03:33:07.374Z,74.96
2022-10-31T03:35:35.784Z,75.11
2022-10-31T03:38:06.974Z,75.97
2022-10-31T03:40:37.697Z,76.17
2022-10-31T03:43:13.758Z,76.03
2022-10-31T04:01:18.017Z,75.16
2022-10-31T04:03:45.951Z,75.00
2022-10-31T04:06:15.771Z,74.90
2022-10-31T04:08:56.761Z,75.08
2022-10-31T04:11:29.299Z,75.65
2022-10-31T04:13:57.708Z,75.55
2022-10-31T04:16:26.487Z,76.10
2022-10-31T04:18:53.060Z,76.12
2022-10-31T04:21:19.427Z,75.94
2022-10-31T04:23:45.823Z,76.08
2022-10-31T04:26:13.391Z,77.17
2022-10-31T04:28:39.923Z,77.45
2022-10-31T04:31:06.397Z,77.25
2022-10-31T04:33:32.702Z,77.21
2022-10-31T04:35:59.058Z,76.97
2022-10-31T04:38:25.520Z,76.81
2022-10-31T04:40:51.860Z,77.06
2022-10-31T04:45:49.783Z,77.67
2022-10-31T04:48:16.349Z,78.52
2022-10-31T04:50:42.782Z,78.95
2022-10-31T04:53:09.201Z,78.69
2022-10-31T04:55:36.817Z,78.19
2022-10-31T04:58:04.327Z,77.87
2022-10-31T05:00:30.997Z,77.58
2022-10-31T05:02:59.172Z,77.97
2022-10-31T05:05:28.985Z,77.76
2022-10-31T05:07:56.479Z,77.45
2022-10-31T05:10:25.239Z,77.78
2022-10-31T05:12:58.354Z,77.75
2022-10-31T05:15:26.900Z,77.58
2022-10-31T05:17:54.491Z,76.79
2022-10-31T05:20:24.028Z,76.88
2022-10-31T05:22:53.433Z,76.68
2022-10-31T05:25:22.156Z,76.48
2022-10-31T05:27:50.568Z,76.42
2022-10-31T05:30:36.614Z,76.81
2022-10-31T05:33:03.242Z,76.86
2022-10-31T05:35:32.645Z,77.05
2022-10-31T05:37:59.607Z,76.70
2022-10-31T05:40:27.714Z,76.35
2022-10-31T05:42:56.302Z,76.43
2022-10-31T05:45:23.763Z,76.41
2022-10-31T05:47:54.782Z,76.45
2022-10-31T05:50:22.309Z,76.29
2022-10-31T05:52:48.739Z,76.67
2022-10-31T05:55:15.154Z,76.86
2022-10-31T05:57:41.457Z,77.57
2022-10-31T06:00:08.691Z,78.57
2022-10-31T06:02:35.463Z,78.99
2022-10-31T06:05:02.688Z,78.38
2022-10-31T06:07:33.943Z,77.97
2022-10-31T06:10:00.433Z,77.90
2022-10-31T06:12:26.811Z,77.00
2022-10-31T06:14:53.132Z,77.37
2022-10-31T06:17:19.462Z,76.44
2022-10-31T06:19:45.855Z,76.68
2022-10-31T06:22:12.408Z,75.99
2022-10-31T06:24:39.326Z,76.25
2022-10-31T06:27:07.154Z,75.87
2022-10-31T06:29:33.531Z,76.14
2022-10-31T06:31:59.876Z,76.56
2022-10-31T06:34:26.184Z,76.69
2022-10-31T06:36:52.597Z,76.58
2022-10-31T06:39:18.946Z,76.67
2022-10-31T06:41:48.613Z,76.84
2022-10-31T06:44:15.018Z,76.84
2022-10-31T06:46:41.362Z,76.93
2022-10-31T06:49:07.656Z,76.33
2022-10-31T06:51:34.023Z,76.75
2022-10-31T06:54:00.347Z,77.32
2022-10-31T06:56:26.784Z,77.18
2022-10-31T06:58:53.188Z,77.14
2022-10-31T07:01:19.647Z,77.41
2022-10-31T07:03:46.430Z,76.95
2022-10-31T07:06:14.008Z,76.91
2022-10-31T07:08:40.689Z,76.82
2022-10-31T07:11:06.996Z,76.86
2022-10-31T07:13:33.694Z,76.48
2022-10-31T07:16:02.474Z,76.31
2022-10-31T07:18:29.188Z,76.31
2022-10-31T07:20:55.716Z,76.74
2022-10-31T07:23:22.836Z,76.61
2022-10-31T07:25:49.157Z,76.18
2022-10-31T07:28:15.714Z,76.09
2022-10-31T07:30:42.039Z,76.67
2022-10-31T07:33:09.366Z,77.11
2022-10-31T07:35:36.290Z,77.67
2022-10-31T07:38:13.815Z,77.80
2022-10-31T07:40:41.206Z,77.54
2022-10-31T07:43:10.151Z,77.52
2022-10-31T07:45:39.523Z,77.63
2022-10-31T07:48:06.541Z,77.98
2022-10-31T07:50:36.752Z,77.70
2022-10-31T07:53:11.736Z,78.01
2022-10-31T07:55:38.741Z,78.48
2022-10-31T07:58:06.395Z,78.64
2022-10-31T08:00:34.747Z,78.68
2022-10-31T08:03:03.826Z,79.22
2022-10-31T08:05:31.762Z,78.67
2022-10-31T08:07:59.098Z,78.50
2022-10-31T08:10:27.079Z,78.37
2022-10-31T08:12:58.312Z,78.33
2022-10-31T08:15:25.261Z,78.07
2022-10-31T08:17:51.668Z,78.04
2022-10-31T08:20:18.993Z,77.31
2022-10-31T08:22:53.845Z,76.81
2022-10-31T08:25:20.168Z,76.50
2022-10-31T08:27:51.564Z,76.63
2022-10-31T08:30:18.652Z,77.14
2022-10-31T08:32:46.215Z,76.93
2022-10-31T08:35:12.666Z,76.83
2022-10-31T08:37:38.989Z,77.13
2022-10-31T08:40:07.456Z,77.28
2022-10-31T08:42:33.900Z,77.56
2022-10-31T08:45:00.289Z,77.59
2022-10-31T08:47:26.754Z,77.60
2022-10-31T08:49:53.056Z,77.36
2022-10-31T08:52:19.375Z,77.29
2022-10-31T08:54:45.688Z,76.92
2022-10-31T08:57:12.000Z,76.63
2022-10-31T08:59:38.309Z,76.44
2022-10-31T09:02:06.121Z,76.48
2022-10-31T09:04:32.448Z,76.53
2022-10-31T09:07:20.041Z,76.56
2022-10-31T09:09:45.152Z,76.64
2022-10-31T09:12:11.465Z,76.15
2022-10-31T09:14:37.821Z,76.10
2022-10-31T09:17:04.141Z,76.31
2022-10-31T09:19:30.649Z,76.37
2022-10-31T09:21:57.013Z,76.43
2022-10-31T09:24:23.418Z,76.65
2022-10-31T09:26:49.764Z,76.52
2022-10-31T09:29:16.104Z,76.28
2022-10-31T09:31:45.043Z,75.38
2022-10-31T09:34:11.617Z,74.85
2022-10-31T09:36:39.271Z,74.48
2022-10-31T09:39:05.637Z,75.19
2022-10-31T09:41:57.245Z,74.06
2022-10-31T09:44:39.204Z,73.06
2022-10-31T09:47:24.714Z,73.43
2022-10-31T09:50:17.959Z,72.31
2022-10-31T09:52:55.041Z,73.00
2022-10-31T09:55:42.841Z,72.51
2022-10-31T09:58:20.769Z,72.35
2022-10-31T10:00:48.816Z,71.11
2022-10-31T10:03:29.684Z,71.23
2022-10-31T10:06:05.538Z,71.50
2022-10-31T10:08:34.118Z,70.01
2022-10-31T10:11:23.864Z,69.87
2022-10-31T10:14:19.045Z,69.15
2022-10-31T10:17:07.265Z,68.51
2022-10-31T10:19:58.587Z,68.01
2022-10-31T10:22:43.526Z,68.43
2022-10-31T10:25:15.293Z,69.03
2022-10-31T10:28:03.480Z,69.52
2022-10-31T10:30:49.670Z,70.26
2022-10-31T10:33:31.883Z,69.89
2022-10-31T10:36:01.490Z,69.64
2022-10-31T10:38:44.558Z,69.58
2022-10-31T10:41:21.727Z,69.99
2022-10-31T10:43:52.474Z,69.11
2022-10-31T10:47:00.847Z,68.95
2022-10-31T10:49:48.788Z,67.94
2022-10-31T10:52:42.032Z,68.03
2022-10-31T10:55:12.813Z,68.45
2022-10-31T10:57:59.750Z,67.46
2022-10-31T11:00:30.366Z,68.12
2022-10-31T11:02:57.527Z,68.86
2022-10-31T11:05:51.526Z,69.51
2022-10-31T11:08:44.403Z,68.81
2022-10-31T11:11:26.652Z,68.59
2022-10-31T11:14:12.665Z,68.67
2022-10-31T11:16:42.796Z,67.51
2022-10-31T11:19:18.221Z,67.67
2022-10-31T11:21:53.778Z,68.15
2022-10-31T11:24:28.328Z,67.68
2022-10-31T11:27:29.488Z,68.15
2022-10-31T11:30:06.526Z,68.74
2022-10-31T11:32:33.330Z,67.96
2022-10-31T11:35:03.443Z,68.33
2022-10-31T11:37:43.571Z,68.13
2022-10-31T11:40:22.122Z,67.68
2022-10-31T11:42:50.676Z,67.32
2022-10-31T11:45:23.077Z,67.13
2022-10-31T11:47:56.732Z,65.71
2022-10-31T11:50:40.212Z,66.08
2022-10-31T11:53:18.808Z,65.15
2022-10-31T11:55:47.357Z,65.38
2022-10-31T11:58:25.822Z,64.26
2022-10-31T12:00:55.716Z,64.39
2022-10-31T12:03:39.538Z,65.77
2022-10-31T12:06:24.610Z,65.62
2022-10-31T12:08:53.589Z,65.24
2022-10-31T12:11:35.272Z,65.03
2022-10-31T12:14:04.601Z,64.17
2022-10-31T12:16:40.965Z,64.80
2022-10-31T12:19:30.524Z,63.77
2022-10-31T12:22:24.975Z,63.69
2022-10-31T12:25:16.417Z,64.40
2022-10-31T12:28:04.714Z,64.76
2022-10-31T12:31:08.477Z,63.84
2022-10-31T12:34:17.156Z,63.16
2022-10-31T12:37:13.769Z,63.39
2022-10-31T12:39:52.867Z,63.23
2022-10-31T12:42:48.115Z,62.07
2022-10-31T12:45:45.824Z,62.52
2022-10-31T12:48:28.193Z,62.16
2022-10-31T12:51:16.377Z,62.18
2022-10-31T12:53:42.669Z,62.43
2022-10-31T12:56:20.276Z,61.50
2022-10-31T12:58:52.559Z,60.79
2022-10-31T13:01:25.359Z,61.44
2022-10-31T13:04:22.625Z,61.06
2022-10-31T13:07:00.462Z,61.09
2022-10-31T13:09:37.944Z,61.45
2022-10-31T13:12:11.254Z,61.16
2022-10-31T13:14:46.936Z,61.53
2022-10-31T13:17:44.401Z,60.82
2022-10-31T13:20:20.806Z,60.46
2022-10-31T13:22:51.124Z,61.08
2022-10-31T13:25:25.526Z,61.73
2022-10-31T13:28:00.461Z,61.58
2022-10-31T13:30:32.221Z,62.40
2022-10-31T13:33:10.478Z,61.45
2022-10-31T13:35:44.341Z,61.35
2022-10-31T13:38:35.929Z,61.17
2022-10-31T13:41:18.962Z,60.36
2022-10-31T13:44:02.378Z,61.34
2022-10-31T13:46:34.549Z,60.17
2022-10-31T13:49:01.295Z,60.59
2022-10-31T13:51:34.913Z,60.38
2022-10-31T13:54:21.915Z,59.55
2022-10-31T13:56:53.467Z,59.36
2022-10-31T13:59:22.008Z,59.16
2022-10-31T14:01:55.984Z,59.18
2022-10-31T14:04:40.230Z,59.42
2022-10-31T14:07:13.152Z,59.71
2022-10-31T14:09:59.680Z,60.33
2022-10-31T14:12:34.494Z,60.08
2022-10-31T14:15:13.144Z,60.29
2022-10-31T14:17:47.920Z,59.90
2022-10-31T14:20:14.930Z,60.03
2022-10-31T14:22:43.094Z,60.62
2022-10-31T14:25:36.125Z,60.67
2022-10-31T14:28:19.191Z,61.04
2022-10-31T14:30:57.958Z,60.45
2022-10-31T14:33:27.915Z,60.51
2022-10-31T14:36:04.374Z,60.47
2022-10-31T14:38:48.724Z,60.57
2022-10-31T14:41:29.368Z,60.92
2022-10-31T14:44:15.487Z,60.45
2022-10-31T14:47:03.389Z,59.87
2022-10-31T14:49:54.449Z,60.08
2022-10-31T14:52:22.027Z,59.64
2022-10-31T14:54:54.614Z,59.70
2022-10-31T14:57:29.766Z,60.65
2022-10-31T15:00:06.034Z,59.64
2022-10-31T15:02:42.463Z,59.45
2022-10-31T15:05:10.961Z,59.50
2022-10-31T15:07:40.910Z,59.21
2022-10-31T15:10:21.353Z,59.35
2022-10-31T15:12:47.863Z,59.35
2022-10-31T15:15:26.747Z,59.26
2022-10-31T15:18:00.455Z,59.15
2022-10-31T15:20:29.441Z,59.09
2022-10-31T15:22:58.709Z,59.05
2022-10-31T15:25:28.996Z,59.37
2022-10-31T15:27:55.322Z,59.09
2022-10-31T15:30:27.920Z,59.04
2022-10-31T15:32:58.770Z,59.94
2022-10-31T15:35:30.965Z,59.83
2022-10-31T15:37:59.872Z,59.63
2022-10-31T15:40:28.051Z,59.88
2022-10-31T15:42:58.962Z,60.01
2022-10-31T15:45:27.978Z,60.40
2022-10-31T15:47:58.754Z,60.42
2022-10-31T15:50:33.510Z,60.77
2022-10-31T15:53:01.013Z,60.85
2022-10-31T15:55:30.530Z,61.13
2022-10-31T15:57:59.574Z,61.35
2022-10-31T16:00:30.404Z,61.54
2022-10-31T16:03:22.553Z,61.75
2022-10-31T16:05:52.036Z,62.25
2022-10-31T16:08:27.591Z,62.54
2022-10-31T16:10:54.309Z,63.07
2022-10-31T16:13:27.057Z,63.03
2022-10-31T16:16:28.735Z,63.10
2022-10-31T16:18:47.505Z,63.10
2022-10-31T16:21:14.175Z,63.30
2022-10-31T16:23:46.831Z,63.57
2022-10-31T16:26:19.568Z,63.22
2022-10-31T16:29:03.199Z,63.45
2022-10-31T16:31:41.016Z,63.62
2022-10-31T16:34:26.239Z,63.59
2022-10-31T16:36:53.641Z,63.35
2022-10-31T16:39:20.097Z,63.49
2022-10-31T16:41:50.200Z,63.75
2022-10-31T16:44:23.360Z,63.66
2022-10-31T16:47:08.417Z,63.72
2022-10-31T16:49:34.786Z,63.07
2022-10-31T16:52:01.147Z,62.85
2022-10-31T16:54:30.044Z,63.11
2022-10-31T16:56:56.521Z,62.93
2022-10-31T16:59:22.852Z,62.76
2022-10-31T17:01:50.208Z,62.35
2022-10-31T17:04:16.757Z,62.42
2022-10-31T17:06:43.226Z,62.49
2022-10-31T17:09:09.817Z,62.69
2022-10-31T17:11:36.854Z,62.46
2022-10-31T17:14:05.721Z,62.73
2022-10-31T17:16:32.029Z,62.24
2022-10-31T17:18:58.343Z,62.00
2022-10-31T17:21:26.300Z,61.97
2022-10-31T17:23:52.601Z,61.92
2022-10-31T17:26:19.775Z,61.95
2022-10-31T17:28:46.375Z,62.23
2022-10-31T17:31:23.527Z,62.12
2022-10-31T17:33:50.745Z,61.59
2022-10-31T17:36:17.479Z,61.79
2022-10-31T17:38:43.791Z,62.06
2022-10-31T17:41:11.453Z,61.85
2022-10-31T17:43:38.265Z,61.22
2022-10-31T17:46:05.085Z,61.36
2022-10-31T17:48:33.725Z,61.41
2022-10-31T17:51:01.813Z,61.57
2022-10-31T17:53:30.304Z,61.52
2022-10-31T17:56:07.789Z,61.61
2022-10-31T17:58:35.533Z,61.56
2022-10-31T18:01:08.269Z,62.20
2022-10-31T18:03:34.744Z,61.99
2022-10-31T18:06:01.055Z,61.84
2022-10-31T18:08:29.667Z,61.78
2022-10-31T18:10:59.657Z,61.87
2022-10-31T18:13:27.555Z,62.04
2022-10-31T18:15:54.559Z,61.91
2022-10-31T18:18:21.587Z,62.17
2022-10-31T18:20:48.000Z,62.36
2022-10-31T18:23:14.641Z,61.92
2022-10-31T18:25:43.249Z,61.77
2022-10-31T18:28:10.391Z,61.91
2022-10-31T18:30:41.356Z,62.08
2022-10-31T18:33:08.464Z,62.14
2022-10-31T18:35:39.113Z,62.03
2022-10-31T18:38:06.833Z,61.87
2022-10-31T18:40:35.685Z,61.79
2022-10-31T18:43:03.386Z,61.99
2022-10-31T18:45:41.745Z,62.34
2022-10-31T18:48:14.322Z,62.28
2022-10-31T18:50:41.463Z,62.10
2022-10-31T18:53:07.956Z,62.35
2022-10-31T18:55:34.509Z,62.78
2022-10-31T18:58:00.828Z,62.56
2022-10-31T19:00:27.155Z,62.65
2022-10-31T19:02:56.321Z,62.39
2022-10-31T19:05:23.073Z,62.15
2022-10-31T19:07:49.406Z,62.20
2022-10-31T19:10:15.901Z,62.53
2022-10-31T19:12:42.217Z,62.35
2022-10-31T19:15:08.934Z,62.57
2022-10-31T19:17:35.249Z,63.05
2022-10-31T19:20:01.585Z,63.35
2022-10-31T19:22:31.056Z,63.50
2022-10-31T19:24:57.344Z,63.36
2022-10-31T19:27:26.308Z,63.39
2022-10-31T19:29:52.645Z,63.35
2022-10-31T19:32:19.201Z,63.31
2022-10-31T19:34:45.587Z,63.08
2022-10-31T19:37:12.064Z,63.02
2022-10-31T19:39:43.712Z,63.00
2022-10-31T19:42:10.702Z,63.16
2022-10-31T19:44:37.233Z,63.23
2022-10-31T19:47:03.600Z,63.52
2022-10-31T19:49:30.010Z,63.61
2022-10-31T19:51:56.440Z,63.66
2022-10-31T19:54:23.500Z,63.52
2022-10-31T19:56:49.938Z,63.37
2022-10-31T19:59:16.319Z,63.36
2022-10-31T20:01:42.735Z,63.15
2022-10-31T20:04:09.244Z,63.22
2022-10-31T20:06:46.736Z,63.13
2022-10-31T20:09:18.908Z,63.39
2022-10-31T20:11:51.894Z,63.06
2022-10-31T20:14:24.257Z,63.16
2022-10-31T20:16:59.374Z,63.06
2022-10-31T20:19:25.684Z,63.05
2022-10-31T20:21:52.193Z,63.13
2022-10-31T20:24:18.889Z,63.09
2022-10-31T20:26:45.245Z,63.04
2022-10-31T20:29:19.520Z,63.00
2022-10-31T20:31:47.135Z,63.05
2022-10-31T20:34:14.802Z,63.08
2022-10-31T20:36:41.350Z,63.02
2022-10-31T20:39:09.314Z,62.81
2022-10-31T20:41:39.406Z,62.85
2022-10-31T20:44:06.474Z,62.96
2022-10-31T20:46:33.034Z,62.86
2022-10-31T20:48:59.732Z,63.16
2022-10-31T20:51:28.232Z,62.98
2022-10-31T20:53:56.328Z,63.08
2022-10-31T20:56:24.522Z,63.36
2022-10-31T20:58:51.483Z,62.85
2022-10-31T21:01:21.179Z,62.98
2022-10-31T21:03:48.696Z,63.28
2022-10-31T21:06:16.388Z,63.64
2022-10-31T21:08:43.350Z,63.53
2022-10-31T21:11:13.512Z,63.63
2022-10-31T21:13:42.049Z,63.59
2022-10-31T21:16:11.590Z,63.75
2022-10-31T21:18:39.610Z,63.67
2022-10-31T21:21:11.463Z,63.56
2022-10-31T21:23:38.732Z,63.18
2022-10-31T21:26:11.059Z,63.58
2022-10-31T21:28:37.827Z,64.00
2022-10-31T21:31:13.029Z,63.52
2022-10-31T21:33:39.845Z,63.77
2022-10-31T21:36:07.321Z,63.92
2022-10-31T21:38:34.367Z,64.15
2022-10-31T21:41:03.254Z,63.86
2022-10-31T21:43:30.032Z,63.86
2022-10-31T21:46:02.594Z,63.96
2022-10-31T21:48:28.982Z,63.95
2022-10-31T21:50:55.335Z,63.96
2022-10-31T21:53:40.132Z,63.94
2022-10-31T21:56:07.075Z,64.07
2022-10-31T21:58:36.195Z,64.02
2022-10-31T22:01:05.339Z,64.17
2022-10-31T22:03:38.692Z,64.17
2022-10-31T22:06:07.401Z,64.02
2022-10-31T22:08:34.044Z,64.24
2022-10-31T22:11:05.291Z,63.86
2022-10-31T22:13:33.166Z,64.04
2022-10-31T22:16:04.222Z,64.21
2022-10-31T22:18:30.769Z,63.93
2022-10-31T22:21:19.511Z,64.12
2022-10-31T22:23:51.085Z,63.95
2022-10-31T22:26:17.503Z,63.94
2022-10-31T22:28:46.084Z,64.27
2022-10-31T22:31:15.576Z,64.27
2022-10-31T22:33:42.008Z,64.00
2022-10-31T22:36:11.644Z,64.48
2022-10-31T22:38:42.187Z,64.24
2022-10-31T22:41:10.880Z,64.10
2022-10-31T22:43:37.541Z,64.49
2022-10-31T22:46:06.239Z,64.35
2022-10-31T22:48:37.110Z,64.49
2022-10-31T22:51:08.393Z,64.44
2022-10-31T22:53:35.981Z,64.71
2022-10-31T22:56:03.229Z,64.41
2022-10-31T22:58:30.931Z,64.66
2022-10-31T23:00:57.560Z,65.04
2022-10-31T23:03:24.699Z,64.90
2022-10-31T23:05:57.994Z,64.79
2022-10-31T23:08:25.400Z,65.33
2022-10-31T23:10:52.087Z,65.80
2022-10-31T23:13:36.941Z,65.95
2022-10-31T23:16:07.615Z,65.86
2022-10-31T23:18:49.718Z,65.60
2022-10-31T23:21:37.113Z,66.50
2022-10-31T23:24:03.745Z,66.13
2022-10-31T23:26:48.715Z,66.29
2022-10-31T23:29:15.008Z,66.98
2022-10-31T23:31:41.311Z,66.78
2022-10-31T23:34:07.642Z,66.46
2022-10-31T23:36:34.003Z,65.85
2022-10-31T23:39:00.394Z,65.67
2022-10-31T23:41:26.728Z,65.44
2022-10-31T23:43:53.012Z,65.19
2022-10-31T23:46:19.331Z,65.43
2022-10-31T23:48:48.045Z,64.80
2022-10-31T23:51:14.883Z,64.86
2022-10-31T23:53:45.010Z,64.96
2022-10-31T23:56:12.115Z,64.94
2022-10-31T23:58:38.850Z,64.73
